createdAt,value
2022-12-19T00:00:15.555Z,63.13
2022-12-19T00:05:22.867Z,67.57
2022-12-19T00:10:29.280Z,60.08
2022-12-19T00:15:36.256Z,55.00
2022-12-19T00:20:43.668Z,52.38
2022-12-19T00:25:48.538Z,58.60
2022-12-19T00:30:53.445Z,62.20
2022-12-19T00:36:03.603Z,59.65
2022-12-19T00:41:12.063Z,65.85
2022-12-19T00:46:17.449Z,75.97
2022-12-19T00:51:26.375Z,73.28
2022-12-19T00:56:33.480Z,99.25
2022-12-19T01:01:46.558Z,79.53
2022-12-19T01:06:54.223Z,94.18
2022-12-19T01:12:15.187Z,81.80
2022-12-19T01:17:19.827Z,86.75
2022-12-19T01:22:27.379Z,80.30
2022-12-19T01:27:32.419Z,69.35
2022-12-19T01:32:37.267Z,67.28
2022-12-19T01:37:44.559Z,67.97
2022-12-19T01:42:49.296Z,57.35
2022-12-19T01:47:55.646Z,55.45
2022-12-19T01:53:03.609Z,50.55
2022-12-19T01:58:08.302Z,45.50
2022-12-19T02:03:14.691Z,46.05
2022-12-19T02:08:22.030Z,43.30
2022-12-19T02:13:26.866Z,47.58
2022-12-19T02:18:35.371Z,48.40
2022-12-19T02:23:54.954Z,46.40
2022-12-19T02:29:15.106Z,48.47
2022-12-19T02:34:24.142Z,45.78
2022-12-19T02:39:33.716Z,42.38
2022-12-19T02:44:40.576Z,44.63
2022-12-19T02:49:47.854Z,44.00
2022-12-19T02:54:54.182Z,40.70
2022-12-19T03:00:05.877Z,41.15
2022-12-19T03:05:16.250Z,41.67
2022-12-19T03:10:23.854Z,41.22
2022-12-19T03:15:29.508Z,41.33
2022-12-19T03:20:42.709Z,38.50
2022-12-19T03:25:48.932Z,39.95
2022-12-19T03:30:54.372Z,39.30
2022-12-19T03:36:03.980Z,38.63
2022-12-19T03:41:09.487Z,40.50
2022-12-19T03:46:16.220Z,38.92
2022-12-19T03:51:25.669Z,39.13
2022-12-19T03:56:34.255Z,42.97
2022-12-19T04:01:39.890Z,35.83
2022-12-19T04:06:48.705Z,37.75
2022-12-19T04:11:56.578Z,38.13
2022-12-19T04:17:07.514Z,36.40
2022-12-19T04:22:16.456Z,34.10
2022-12-19T04:27:21.868Z,32.70
2022-12-19T04:32:28.220Z,33.13
2022-12-19T04:37:38.676Z,35.77
2022-12-19T04:42:43.379Z,33.38
2022-12-19T04:47:48.075Z,32.97
2022-12-19T04:52:57.155Z,32.08
2022-12-19T04:58:02.171Z,34.70
2022-12-19T05:03:07.151Z,31.17
2022-12-19T05:08:15.136Z,31.90
2022-12-19T05:13:19.902Z,33.10
2022-12-19T05:18:24.848Z,32.20
2022-12-19T05:23:32.236Z,29.35
2022-12-19T05:28:37.174Z,29.33
2022-12-19T05:33:42.457Z,33.17
2022-12-19T05:38:49.809Z,34.58
2022-12-19T05:43:55.625Z,34.15
2022-12-19T05:49:00.267Z,34.50
2022-12-19T05:54:08.326Z,35.88
2022-12-19T05:59:13.239Z,32.05
2022-12-19T06:04:17.964Z,36.55
2022-12-19T06:09:25.528Z,35.53
2022-12-19T06:14:30.210Z,34.38
2022-12-19T06:19:35.089Z,33.67
2022-12-19T06:24:42.461Z,32.58
2022-12-19T06:29:50.205Z,35.15
2022-12-19T06:35:03.961Z,39.28
2022-12-19T06:40:33.827Z,38.10
2022-12-19T06:45:38.537Z,32.95
2022-12-19T06:50:43.336Z,52.00
2022-12-19T06:55:57.789Z,46.70
2022-12-19T07:01:02.649Z,35.65
2022-12-19T07:06:07.994Z,30.10
2022-12-19T07:11:16.015Z,29.95
2022-12-19T07:16:20.723Z,29.08
2022-12-19T07:21:25.609Z,35.38
2022-12-19T07:26:33.022Z,54.65
2022-12-19T07:31:37.931Z,51.35
2022-12-19T07:36:42.770Z,51.90
2022-12-19T07:41:50.332Z,44.67
2022-12-19T07:46:55.028Z,45.47
2022-12-19T07:51:59.957Z,58.75
2022-12-19T07:57:08.194Z,61.25
2022-12-19T08:02:13.007Z,57.80
2022-12-19T08:07:17.805Z,50.05
2022-12-19T08:12:25.210Z,56.45
2022-12-19T08:17:30.052Z,71.10
2022-12-19T08:22:35.048Z,46.55
2022-12-19T08:27:43.215Z,34.53
2022-12-19T08:32:48.361Z,32.80
2022-12-19T08:37:53.111Z,28.38
2022-12-19T08:43:00.616Z,26.35
2022-12-19T08:48:05.413Z,26.23
2022-12-19T08:53:10.149Z,27.55
2022-12-19T08:58:17.781Z,28.25
2022-12-19T09:03:22.847Z,35.08
2022-12-19T09:08:29.965Z,37.78
2022-12-19T09:13:38.632Z,47.42
2022-12-19T09:18:48.249Z,34.03
2022-12-19T09:23:54.510Z,33.35
2022-12-19T09:29:02.294Z,32.38
2022-12-19T09:34:07.776Z,35.92
2022-12-19T09:39:13.275Z,28.92
2022-12-19T09:44:28.099Z,26.95
2022-12-19T09:49:36.875Z,28.70
2022-12-19T09:54:49.408Z,29.75
2022-12-19T09:59:58.192Z,32.22
2022-12-19T10:05:26.802Z,30.20
2022-12-19T10:12:34.516Z,31.77
2022-12-19T10:16:06.651Z,29.75
2022-12-19T10:21:12.737Z,33.97
2022-12-19T10:26:21.361Z,31.63
2022-12-19T10:31:33.209Z,28.33
2022-12-19T10:37:12.987Z,27.95
2022-12-19T10:42:14.150Z,27.50
2022-12-19T10:47:21.510Z,28.50
2022-12-19T10:52:40.958Z,27.20
2022-12-19T10:57:45.649Z,25.90
2022-12-19T11:02:54.087Z,25.67
2022-12-19T11:08:06.887Z,25.50
2022-12-19T11:18:01.219Z,26.60
2022-12-19T11:28:36.048Z,22.55
2022-12-19T11:29:30.745Z,23.88
2022-12-19T11:35:18.462Z,22.67
2022-12-19T11:40:27.977Z,20.83
2022-12-19T11:45:38.426Z,20.02
2022-12-19T11:50:53.649Z,24.20
2022-12-19T11:56:01.567Z,28.40
2022-12-19T12:01:09.974Z,28.13
2022-12-19T12:06:19.521Z,27.38
2022-12-19T12:16:58.630Z,26.80
2022-12-19T12:30:56.259Z,26.75
2022-12-19T12:31:09.793Z,25.92
2022-12-19T12:32:02.765Z,24.33
2022-12-19T12:35:56.481Z,26.00
2022-12-19T12:39:18.857Z,23.65
2022-12-19T12:44:30.685Z,25.25
2022-12-19T12:49:41.224Z,25.40
2022-12-19T12:54:52.105Z,24.40
2022-12-19T13:00:16.979Z,24.08
2022-12-19T13:05:28.564Z,23.20
2022-12-19T13:10:36.141Z,27.65
2022-12-19T13:15:42.424Z,26.70
2022-12-19T13:20:48.246Z,27.05
2022-12-19T13:25:57.346Z,30.25
2022-12-19T13:31:22.782Z,27.13
2022-12-19T13:39:48.840Z,28.75
2022-12-19T13:42:30.470Z,26.65
2022-12-19T13:47:41.392Z,35.10
2022-12-19T13:52:50.995Z,30.88
2022-12-19T13:57:59.076Z,27.67
2022-12-19T14:03:04.649Z,28.65
2022-12-19T14:08:10.874Z,27.63
2022-12-19T14:13:55.523Z,33.45
2022-12-19T14:19:00.704Z,26.65
2022-12-19T14:24:12.035Z,27.90
2022-12-19T14:29:45.344Z,25.63
2022-12-19T14:36:08.557Z,28.20
2022-12-19T14:40:21.353Z,24.05
2022-12-19T14:54:09.466Z,24.00
2022-12-19T14:54:37.408Z,23.60
2022-12-19T15:02:04.572Z,25.30
2022-12-19T15:07:12.522Z,24.23
2022-12-19T15:13:46.674Z,22.33
2022-12-19T15:17:58.008Z,21.73
2022-12-19T15:23:04.407Z,28.15
2022-12-19T15:28:13.445Z,30.88
2022-12-19T15:33:20.948Z,29.83
2022-12-19T15:38:25.796Z,29.75
2022-12-19T15:44:02.417Z,30.58
2022-12-19T15:49:00.063Z,37.25
2022-12-19T15:59:37.848Z,31.65
2022-12-19T16:04:46.060Z,25.65
2022-12-19T16:09:51.409Z,26.08
2022-12-19T16:14:58.845Z,25.92
2022-12-19T16:20:09.107Z,25.58
2022-12-19T16:25:15.818Z,26.73
2022-12-19T16:30:22.158Z,33.47
2022-12-19T16:40:55.492Z,29.98
2022-12-19T16:46:01.736Z,17.98
2022-12-19T16:51:13.590Z,18.08
2022-12-19T16:56:23.987Z,15.77
2022-12-19T17:06:36.314Z,15.45
2022-12-19T17:11:41.138Z,13.63
2022-12-19T17:16:46.157Z,13.88
2022-12-19T17:21:54.356Z,17.60
2022-12-19T17:26:59.066Z,16.65
2022-12-19T17:32:03.974Z,13.60
2022-12-19T17:37:13.496Z,14.10
2022-12-19T17:42:19.508Z,15.93
2022-12-19T17:47:24.227Z,15.93
2022-12-19T17:52:32.488Z,16.58
2022-12-19T17:57:37.225Z,15.63
2022-12-19T18:02:42.629Z,15.43
2022-12-19T18:07:50.187Z,17.85
2022-12-19T18:12:55.953Z,19.58
2022-12-19T18:18:00.927Z,20.45
2022-12-19T18:23:13.005Z,19.20
2022-12-19T18:28:18.303Z,18.40
2022-12-19T18:33:24.444Z,20.55
2022-12-19T18:38:31.896Z,17.50
2022-12-19T18:43:36.742Z,20.40
2022-12-19T18:48:41.496Z,32.50
2022-12-19T18:53:52.010Z,15.90
2022-12-19T18:58:56.866Z,18.58
2022-12-19T19:04:02.451Z,17.13
2022-12-19T19:09:15.838Z,20.00
2022-12-19T19:14:55.704Z,17.52
2022-12-19T19:25:43.864Z,14.63
2022-12-19T19:30:48.845Z,12.63
2022-12-19T19:35:55.193Z,15.23
2022-12-19T19:41:02.962Z,13.45
2022-12-19T19:46:07.983Z,13.68
2022-12-19T19:51:13.710Z,19.73
2022-12-19T19:56:21.169Z,17.02
2022-12-19T20:01:25.993Z,15.27
2022-12-19T20:06:30.986Z,16.95
2022-12-19T20:11:38.557Z,15.43
2022-12-19T20:16:43.862Z,21.70
2022-12-19T20:21:48.808Z,22.85
2022-12-19T20:26:56.233Z,23.45
2022-12-19T20:32:01.037Z,22.58
2022-12-19T20:37:05.947Z,29.83
2022-12-19T20:42:13.385Z,40.80
2022-12-19T20:47:18.235Z,18.95
2022-12-19T20:52:22.974Z,15.27
2022-12-19T20:58:33.112Z,15.00
2022-12-19T21:08:34.075Z,12.82
2022-12-19T21:13:41.993Z,14.10
2022-12-19T21:18:48.142Z,13.77
2022-12-19T21:23:57.014Z,13.15
2022-12-19T21:29:10.024Z,14.05
2022-12-19T21:34:15.005Z,12.82
2022-12-19T21:44:56.978Z,14.30
2022-12-19T21:50:01.772Z,13.45
2022-12-19T21:55:07.031Z,15.88
2022-12-19T22:00:16.450Z,13.82
2022-12-19T22:05:23.017Z,16.37
2022-12-19T22:10:27.791Z,13.80
2022-12-19T22:15:35.315Z,15.18
2022-12-19T22:20:43.545Z,15.77
2022-12-19T22:25:48.308Z,15.57
2022-12-19T22:30:55.727Z,16.45
2022-12-19T22:36:00.513Z,13.82
2022-12-19T22:41:06.058Z,14.57
2022-12-19T22:46:17.564Z,15.40
2022-12-19T22:51:22.682Z,13.30
2022-12-19T22:56:28.319Z,13.95
2022-12-19T23:01:37.885Z,12.75
2022-12-19T23:06:42.990Z,13.57
2022-12-19T23:11:49.181Z,13.73
2022-12-19T23:16:56.570Z,11.65
2022-12-19T23:22:01.366Z,11.10
2022-12-19T23:27:06.186Z,12.05
2022-12-19T23:32:13.763Z,15.65
2022-12-19T23:37:18.627Z,11.52
2022-12-19T23:42:23.504Z,13.77
2022-12-19T23:47:30.894Z,12.40
2022-12-19T23:52:35.648Z,13.25
2022-12-19T23:57:40.417Z,13.90
